Terminal Aerodrome Forecast
Issued by NWS

Home | Current Version | Previous Version | Text Only | Print | Product List | Glossary On
Versions: 1 2 3 4 5 6 7 8 9 10 11 12
985
FTUS44 KSJT 291120
TAFBBD
TAF
KBBD 291120Z 2912/3012 05007KT P6SM OVC120
     FM292000 07008KT P6SM BKN050
      AMD NOT SKED=

USA.gov is the U.S. government's official web portal to all federal, state and local government web resources and services.